MSC Lea — 9HA2639 — position and weather

sailwx.info

Track history (hours):
 
Tides and Currents Weather Stations Pressure Air Temp Water Temp Dewpoint Dewpoint Depression Visibility Wind Speed Wind Dir Waves Ship Positions

MSC Lea

Last reported at 2017-Nov-19 00:59 UTC. Time now 2017-Nov-19 01:26 UTC.
Position N 45°40' E 013°40'.

Length 216 m; draft 9.1 m.

Type: Ship (hazmat cat A). MMSI: 215101000.

Date/timePositionNaut miles runAvg speedWind from/ knotsBaromVisibWave heightAir tempDewpointWater temp
2017-Nov-19 00:59N 45°40' E 013°40'0 0.0
2017-Nov-19 00:26N 45°40' E 013°40'0 0.0
2017-Nov-18 23:56N 45°40' E 013°40'0 0.0
2017-Nov-18 23:29N 45°40' E 013°40'0 0.0
2017-Nov-18 22:59N 45°40' E 013°40'0 0.0
2017-Nov-18 22:29N 45°40' E 013°40'0 0.1
2017-Nov-18 21:59N 45°40' E 013°40'0 0.0
2017-Nov-18 21:26N 45°40' E 013°40'0 0.0
2017-Nov-18 20:59N 45°40' E 013°40'0 0.0
2017-Nov-18 20:29N 45°40' E 013°40'0 0.0
2017-Nov-18 20:00N 45°40' E 013°40'0 0.9
2017-Nov-18 19:30N 45°40' E 013°40'3 6.6
2017-Nov-18 19:00N 45°37' E 013°38'5 9.5
2017-Nov-18 18:29N 45°33' E 013°43'0 0.9
2017-Nov-18 17:59N 45°33' E 013°44'0 0.0
2017-Nov-18 17:26N 45°33' E 013°44'0 0.0
2017-Nov-18 16:59N 45°33' E 013°44'0 0.0
2017-Nov-18 16:23N 45°33' E 013°44'0 0.0
2017-Nov-18 15:59N 45°33' E 013°44'0 0.0
2017-Nov-18 15:29N 45°33' E 013°44'0 0.0
2017-Nov-18 14:59N 45°33' E 013°44'0 0.0
2017-Nov-18 14:29N 45°33' E 013°44'0 0.0
2017-Nov-18 13:59N 45°33' E 013°44'0 0.0
2017-Nov-18 13:29N 45°33' E 013°44'0 0.0
2017-Nov-18 12:59N 45°33' E 013°44'0 0.0
2017-Nov-18 12:29N 45°33' E 013°44'0 0.0
2017-Nov-18 11:59N 45°33' E 013°44'0 0.0
2017-Nov-18 11:29N 45°33' E 013°44'0 0.0
2017-Nov-18 10:56N 45°33' E 013°44'0 0.0
2017-Nov-18 10:29N 45°33' E 013°44'0 0.0
2017-Nov-18 09:58N 45°33' E 013°44'0 0.0
2017-Nov-18 09:22N 45°33' E 013°44'0 0.0
2017-Nov-18 08:58N 45°33' E 013°44'0 0.0
2017-Nov-18 08:28N 45°33' E 013°44'0 0.0
2017-Nov-18 07:58N 45°33' E 013°44'0 0.0
2017-Nov-18 07:25N 45°33' E 013°44'0 0.0
2017-Nov-18 06:58N 45°33' E 013°44'0 0.0
2017-Nov-18 06:28N 45°33' E 013°44'0 0.0
2017-Nov-18 05:58N 45°33' E 013°44'0 0.0
2017-Nov-18 05:28N 45°33' E 013°44'0 0.0
2017-Nov-18 04:58N 45°33' E 013°44'0 0.3
2017-Nov-18 04:30N 45°33' E 013°44'2 3.7
2017-Nov-18 04:01N 45°34' E 013°41'4 8.4
2017-Nov-18 03:30N 45°35' E 013°36'510.2
2017-Nov-18 03:00N 45°33' E 013°29'612.7
2017-Nov-18 02:31N 45°29' E 013°21'612.2
2017-Nov-18 02:00N 45°25' E 013°15'611.3
2017-Nov-18 01:30N 45°20' E 013°12'612.2
2017-Nov-18 01:01N 45°14' E 013°14'712.9
2017-Nov-18 00:30N 45°08' E 013°17'713.7
2017-Nov-18 00:00N 45°01' E 013°20'713.2
2017-Nov-17 23:30N 44°56' E 013°24'713.4
2017-Nov-17 23:00N 44°50' E 013°29'713.2
2017-Nov-17 22:30N 44°44' E 013°34'713.2
2017-Nov-17 22:01N 44°39' E 013°40'713.1
2017-Nov-17 21:31N 44°33' E 013°44'712.9
2017-Nov-17 21:00N 44°28' E 013°49'712.8
2017-Nov-17 20:29N 44°22' E 013°55'612.3
2017-Nov-17 20:00N 44°17' E 013°59'612.4
2017-Nov-17 19:31N 44°12' E 014°04'912.4
2017-Nov-17 18:48N 44°05' E 014°11'412.6
2017-Nov-17 18:30N 44°02' E 014°14'  
2017-Nov-13 01:48N 31°51' E 034°38'11 1.6
2017-Nov-12 19:15N 31°60' E 034°30'414.5
2017-Nov-12 18:58N 32°04' E 034°32'714.7
2017-Nov-12 18:30N 32°10' E 034°34'714.6
2017-Nov-12 18:00N 32°17' E 034°37'714.4
2017-Nov-12 17:30N 32°24' E 034°39'714.3
2017-Nov-12 17:00N 32°31' E 034°42'714.4
2017-Nov-12 16:30N 32°38' E 034°44'714.4
2017-Nov-12 16:00N 32°44' E 034°47'714.5
2017-Nov-12 15:30N 32°51' E 034°50'9 0.7
2017-Nov-12 03:20N 32°49' E 035°01'4 5.7
2017-Nov-12 02:35N 32°53' E 034°57'2 7.7
2017-Nov-12 02:21N 32°54' E 034°56'411.6
2017-Nov-12 02:00N 32°54' E 034°51'1313.2
2017-Nov-12 01:01N 32°56' E 034°35'113.7
2017-Nov-12 00:58N 32°56' E 034°35'  
Track history (hours):
 
Tides and Currents Weather Stations Pressure Air Temp Water Temp Dewpoint Dewpoint Depression Visibility Wind Speed Wind Dir Waves Ship Positions

MSC Lea

Last reported at 2017-Nov-19 00:59 UTC. Time now 2017-Nov-19 01:26 UTC.
Position N 45°40' E 013°40'.

Length 216 m; draft 9.1 m.

Type: Ship (hazmat cat A). MMSI: 215101000.

Date/timePositionNaut miles runAvg speedWind from/ knotsBaromVisibWave heightAir tempDewpointWater temp
2017-Nov-19 00:59N 45°40' E 013°40'0 0.0
2017-Nov-19 00:26N 45°40' E 013°40'0 0.0
2017-Nov-18 23:56N 45°40' E 013°40'0 0.0
2017-Nov-18 23:29N 45°40' E 013°40'0 0.0
2017-Nov-18 22:59N 45°40' E 013°40'0 0.0
2017-Nov-18 22:29N 45°40' E 013°40'0 0.1
2017-Nov-18 21:59N 45°40' E 013°40'0 0.0
2017-Nov-18 21:26N 45°40' E 013°40'0 0.0
2017-Nov-18 20:59N 45°40' E 013°40'0 0.0
2017-Nov-18 20:29N 45°40' E 013°40'0 0.0
2017-Nov-18 20:00N 45°40' E 013°40'0 0.9
2017-Nov-18 19:30N 45°40' E 013°40'3 6.6
2017-Nov-18 19:00N 45°37' E 013°38'5 9.5
2017-Nov-18 18:29N 45°33' E 013°43'0 0.9
2017-Nov-18 17:59N 45°33' E 013°44'0 0.0
2017-Nov-18 17:26N 45°33' E 013°44'0 0.0
2017-Nov-18 16:59N 45°33' E 013°44'0 0.0
2017-Nov-18 16:23N 45°33' E 013°44'0 0.0
2017-Nov-18 15:59N 45°33' E 013°44'0 0.0
2017-Nov-18 15:29N 45°33' E 013°44'0 0.0
2017-Nov-18 14:59N 45°33' E 013°44'0 0.0
2017-Nov-18 14:29N 45°33' E 013°44'0 0.0
2017-Nov-18 13:59N 45°33' E 013°44'0 0.0
2017-Nov-18 13:29N 45°33' E 013°44'0 0.0
2017-Nov-18 12:59N 45°33' E 013°44'0 0.0
2017-Nov-18 12:29N 45°33' E 013°44'0 0.0
2017-Nov-18 11:59N 45°33' E 013°44'0 0.0
2017-Nov-18 11:29N 45°33' E 013°44'0 0.0
2017-Nov-18 10:56N 45°33' E 013°44'0 0.0
2017-Nov-18 10:29N 45°33' E 013°44'0 0.0
2017-Nov-18 09:58N 45°33' E 013°44'0 0.0
2017-Nov-18 09:22N 45°33' E 013°44'0 0.0
2017-Nov-18 08:58N 45°33' E 013°44'0 0.0
2017-Nov-18 08:28N 45°33' E 013°44'0 0.0
2017-Nov-18 07:58N 45°33' E 013°44'0 0.0
2017-Nov-18 07:25N 45°33' E 013°44'0 0.0
2017-Nov-18 06:58N 45°33' E 013°44'0 0.0
2017-Nov-18 06:28N 45°33' E 013°44'0 0.0
2017-Nov-18 05:58N 45°33' E 013°44'0 0.0
2017-Nov-18 05:28N 45°33' E 013°44'0 0.0
2017-Nov-18 04:58N 45°33' E 013°44'0 0.3
2017-Nov-18 04:30N 45°33' E 013°44'2 3.7
2017-Nov-18 04:01N 45°34' E 013°41'4 8.4
2017-Nov-18 03:30N 45°35' E 013°36'510.2
2017-Nov-18 03:00N 45°33' E 013°29'612.7
2017-Nov-18 02:31N 45°29' E 013°21'612.2
2017-Nov-18 02:00N 45°25' E 013°15'611.3
2017-Nov-18 01:30N 45°20' E 013°12'612.2
2017-Nov-18 01:01N 45°14' E 013°14'712.9
2017-Nov-18 00:30N 45°08' E 013°17'713.7
2017-Nov-18 00:00N 45°01' E 013°20'713.2
2017-Nov-17 23:30N 44°56' E 013°24'713.4
2017-Nov-17 23:00N 44°50' E 013°29'713.2
2017-Nov-17 22:30N 44°44' E 013°34'713.2
2017-Nov-17 22:01N 44°39' E 013°40'713.1
2017-Nov-17 21:31N 44°33' E 013°44'712.9
2017-Nov-17 21:00N 44°28' E 013°49'712.8
2017-Nov-17 20:29N 44°22' E 013°55'612.3
2017-Nov-17 20:00N 44°17' E 013°59'612.4
2017-Nov-17 19:31N 44°12' E 014°04'912.4
2017-Nov-17 18:48N 44°05' E 014°11'412.6
2017-Nov-17 18:30N 44°02' E 014°14'  
2017-Nov-13 01:48N 31°51' E 034°38'11 1.6
2017-Nov-12 19:15N 31°60' E 034°30'414.5
2017-Nov-12 18:58N 32°04' E 034°32'714.7
2017-Nov-12 18:30N 32°10' E 034°34'714.6
2017-Nov-12 18:00N 32°17' E 034°37'714.4
2017-Nov-12 17:30N 32°24' E 034°39'714.3
2017-Nov-12 17:00N 32°31' E 034°42'714.4
2017-Nov-12 16:30N 32°38' E 034°44'714.4
2017-Nov-12 16:00N 32°44' E 034°47'714.5
2017-Nov-12 15:30N 32°51' E 034°50'9 0.7
2017-Nov-12 03:20N 32°49' E 035°01'4 5.7
2017-Nov-12 02:35N 32°53' E 034°57'2 7.7
2017-Nov-12 02:21N 32°54' E 034°56'411.6
2017-Nov-12 02:00N 32°54' E 034°51'1313.2
2017-Nov-12 01:01N 32°56' E 034°35'113.7
2017-Nov-12 00:58N 32°56' E 034°35'  

Dump ship's entire track history